DURO2: Washita River Durwood, OK

                                SHEF ID:       DURO2     Washita River near Dickson, OK
STATION TYPE:
Regulating: Stage = 27.00, Flow = 32534

PRECIP PRECIP(A) STAGE RIV-FLOW BAT-LOAD
in in ft cfs volt
Ccp-Rev Ccp-Rev Ccp-Rev Ccp-Rev Ccp-Rev
(America/Chicago)
03/14 00:00 0.00 ---- 7.81 482 12.65
03/14 01:00 0.00 ---- 7.82 485 12.65
03/14 02:00 0.00 ---- 7.82 485 12.65
03/14 03:00 0.00 ---- 7.83 488 12.65
03/14 04:00 0.00 ---- 7.83 488 12.57
03/14 05:00 0.00 ---- 7.83 488 12.57
03/14 06:00 0.00 ---- 7.83 488 12.57
03/14 07:00 0.00 ---- 7.83 488 12.57
03/14 08:00 0.00 ---- 7.84 492 12.57
03/14 09:00 0.00 ---- 7.86 498 12.57
03/14 10:00 0.00 ---- 7.87 502 12.97
03/14 11:00 0.00 ---- 7.89 509 13.60
03/14 12:00 0.00 ---- 7.89 509 13.68
03/14 13:00 0.00 ---- 7.87 502 13.68
03/14 14:00 0.00 ---- 7.85 495 13.29
03/14 15:00 0.00 ---- 7.84 492 13.21
03/14 16:00 0.00 ---- 7.84 492 13.21
03/14 17:00 0.00 ---- 7.83 488 13.21
03/14 18:00 0.00 ---- 7.83 488 13.29
03/14 19:00 0.00 ---- 7.83 488 13.13
03/14 20:00 0.00 ---- 7.82 485 12.89
03/14 21:00 0.00 ---- 7.83 488 12.81
03/14 22:00 0.00 ---- 7.83 488 12.81
03/14 23:00 0.00 ---- 7.83 488 12.73
Data processed at Sun 15Mar2026 04:36 GMT

NOTICE: If you are parsing this page

Please convert to using our Data API. Starting early 2026 we will be migrating to: https://water.usace.army.mil with modern pages rendered in JavaScript. When this migration completes you will no longer be able to scrape this page! CWMSDataAPI (CDA)

Timeseries IDs (TSIDs)

TSIDs used from left to right in the data table
DICK.Precip-Inc.Total.1Hour.1Hour.Ccp-Rev
DICK.Precip-Inc Alt.Total.1Hour.1Hour.Ccp-Rev
DICK.Stage.Inst.1Hour.0.Ccp-Rev
DICK.Flow.Inst.1Hour.0.Ccp-Rev
DICK.Volt-Battery Load.Inst.1Hour.0.Ccp-Rev

                            

All information presented herein is the property of the government of the United States of America and may be revised or deleted at any time without prior notice. Dissemination of this information without the expressed written consent of the Public Affairs Office, Tulsa District U.S. Army Corps of Engineers is strictly prohibited. These data are gathered electronically and, as presented, have NOT undergone any form of quality control. These data are NOT guaranteed to be valid or correct.